Washington, DC (20038)

5:14 PM EST on February 13, 2016 (GMT -0500)
Logan Circle | | Change Station
CLOSE
Current Station
Personal Weather Station
Location: Washington, DC
Elevation: 108 ft
Nearby Weather Stations
Active Advisory: Wind Chill Advisory Active Notice: Public Information Statement

Elev 108 ft 38.91 °N, 77.03 °W | Updated 8 seconds ago

Mostly Cloudy
Mostly Cloudy
19.6 °F
Feels Like 20 °F
N
0.0
Wind Variable Wind from North
Gusts 0.0 mph

Today
High -- | Low -- °F
--% Chance of Precip.
Yesterday
High -- | Low -- °F
Precip. -- in
Pressure 30.34 in
Visibility 10.0 miles
Clouds Scattered Clouds 5500 ft
Windchill 20 °F
Dew Point -1 °F
Humidity 40%
Rainfall 0.00 in
Snow Depth Not available.
7:02 AM 5:42 PM
Waxing Crescent, 34% visible
METAR KDCA 132152Z 32019G28KT 10SM SCT055 M07/M22 A3034 RMK AO2 PK WND 33032/2130 SLP272 VIRGA ALQDS T10671217
Pressure 30.34 in
Visibility 10.0 miles
Clouds Scattered Clouds 5500 ft
Windchill 20 °F
Dew Point -1 °F
Humidity 40%
Rainfall 0.00 in
Snow Depth Not available.
7:02 AM 5:42 PM
Waxing Crescent, 34% visible
METAR KDCA 132152Z 32019G28KT 10SM SCT055 M07/M22 A3034 RMK AO2 PK WND 33032/2130 SLP272 VIRGA ALQDS T10671217

10-Day Weather Forecast

Almanac

Astronomy

Feb. 13, 2016 Rise Set
Actual Time
Civil Twilight
Nautical Twilight
Astronomical Twilight
Moon
Length of Visible Light
Length of Day
Tomorrow will be .
, % of the Moon is Illuminated

Today's Extremes

State Highs State Lows

Community

WunderPhotos

Upload Photos

1,892,687 photos uploaded!

WunderBlog® & News

Nearby

Air Quality

  Air Quality AQ Index Pollutant
Not available.

Snow Depth

Station Depth Elevation

Earthquake Activity

City Distance Mag. Time & Date
Minimum magnitude displayed is 2.5.

Coastal Water Temperatures

Place Temperature

Stations

Nearby Weather Stations

Station Location Temp. Windchill Dew Point Humidity Wind Precip. Elev Updated Type
                   

Watches & Warnings

Wind Chill Advisory
Issued: 3:06 PM EST Feb. 13, 2016 – National Weather Service

... Wind Chill Advisory remains in effect from 6 PM this evening
to 9 am EST Sunday...

* wind chills... 0 to 5 degrees below zero.

* Winds... northwest 20 to 30 mph with gusts up to 40 mph. Winds
decreasing to 10 to 15 mph tonight.

* Temperatures... falling into the single digits to low teens
tonight.

* Timing... late tonight through Sunday morning.

* Impacts... frost bite and hypothermia are possible if
precautions are not taken.

Precautionary/preparedness actions...

A Wind Chill Advisory means that very cold air and strong winds
will combine to generate low wind chills. This will result in
frost bite and lead to hypothermia if precautions are not taken.
If you must venture outdoors... make sure you wear a hat and
gloves.



B/b